Time;durP1;ratioP1;P1;durP2;ratioP2;P2;SDS_P1;SDS_P2;PMS_P1;PMS_P2;Temp;Humidity;BMP_temperature;BMP_pressure;BME280_temperature;BME280_humidity;BME280_pressure;Samples;Min_cycle;Max_cycle;Signal;HPM_P1;HPM_P2
2024/01/16 00:01:07;;;;;;;7.70;3.45;;;0.30;99.90;;;;;;5073047;28;20040;-75
2024/01/16 00:03:33;;;;;;;12.10;6.65;;;0.30;99.90;;;;;;5073878;28;20050;-74
2024/01/16 00:05:59;;;;;;;15.02;6.47;;;0.40;99.90;;;;;;5075186;28;20451;-74
2024/01/16 00:08:24;;;;;;;6.28;4.00;;;0.30;99.90;;;;;;5074525;28;20067;-74
2024/01/16 00:10:50;;;;;;;6.50;3.20;;;0.10;99.90;;;;;;5075002;28;20035;-74
2024/01/16 00:13:16;;;;;;;7.93;4.40;;;0.00;99.90;;;;;;5076025;28;20031;-74
2024/01/16 00:15:43;;;;;;;6.53;2.90;;;0.60;99.90;;;;;;5073843;28;20110;-74
2024/01/16 00:18:09;;;;;;;8.30;4.15;;;0.60;99.90;;;;;;5074480;28;20055;-74
2024/01/16 00:20:34;;;;;;;7.10;4.53;;;0.70;99.90;;;;;;5076820;28;20067;-74
2024/01/16 00:23:00;;;;;;;9.50;4.90;;;0.70;99.90;;;;;;5076393;28;20040;-74
2024/01/16 00:25:26;;;;;;;7.22;4.22;;;0.40;99.90;;;;;;5076068;28;20031;-74
2024/01/16 00:27:52;;;;;;;9.05;4.88;;;0.40;99.90;;;;;;5076534;28;20117;-74
2024/01/16 00:30:18;;;;;;;6.30;3.70;;;0.20;99.90;;;;;;5076813;28;20082;-74
2024/01/16 00:32:44;;;;;;;6.90;3.63;;;0.40;99.90;;;;;;5075270;28;20058;-74
2024/01/16 00:35:09;;;;;;;6.18;3.08;;;1.10;99.90;;;;;;5074493;28;20208;-73
2024/01/16 00:37:39;;;;;;;10.75;3.75;;;1.20;99.90;;;;;;5075254;28;20028;-74
2024/01/16 00:40:08;;;;;;;10.02;5.47;;;1.00;99.90;;;;;;5075894;28;20040;-74
2024/01/16 00:42:34;;;;;;;12.50;6.05;;;1.00;99.90;;;;;;5074914;28;20032;-74
2024/01/16 00:45:00;;;;;;;5.68;3.10;;;0.90;99.90;;;;;;5076361;28;20024;-73
2024/01/16 00:47:26;;;;;;;5.90;2.75;;;1.00;99.90;;;;;;5074866;28;20097;-74
2024/01/16 00:49:52;;;;;;;7.95;3.67;;;1.30;99.40;;;;;;5076922;28;20036;-74
2024/01/16 00:52:18;;;;;;;6.20;2.80;;;1.00;99.90;;;;;;5074987;28;20064;-74
2024/01/16 00:54:44;;;;;;;7.10;2.97;;;1.10;99.70;;;;;;5073895;28;20493;-74
2024/01/16 00:57:10;;;;;;;9.48;4.40;;;1.20;99.70;;;;;;5077281;28;20032;-74
2024/01/16 00:59:36;;;;;;;9.07;4.43;;;1.00;99.90;;;;;;5075090;28;22651;-73
2024/01/16 01:02:03;;;;;;;7.93;3.30;;;0.90;99.90;;;;;;5074225;28;20677;-74
2024/01/16 01:04:29;;;;;;;10.38;4.47;;;1.10;99.70;;;;;;5076694;28;21608;-74
2024/01/16 01:06:55;;;;;;;8.63;3.67;;;0.90;99.90;;;;;;5073706;28;20604;-74
2024/01/16 01:09:21;;;;;;;9.05;5.68;;;0.70;99.90;;;;;;5074515;28;20047;-74
2024/01/16 01:11:47;;;;;;;10.82;4.50;;;0.70;99.90;;;;;;5076017;28;20089;-74
2024/01/16 01:14:12;;;;;;;4.18;2.28;;;0.70;99.90;;;;;;5073380;28;20046;-74
2024/01/16 01:16:38;;;;;;;3.72;1.83;;;1.20;98.80;;;;;;5056140;28;20493;-74
2024/01/16 01:19:04;;;;;;;7.90;4.55;;;1.50;98.30;;;;;;5076256;28;20036;-74
2024/01/16 01:21:30;;;;;;;9.85;5.40;;;1.30;99.90;;;;;;5074591;28;20063;-74
2024/01/16 01:23:55;;;;;;;10.90;6.03;;;1.10;99.90;;;;;;5074972;28;20039;-74
2024/01/16 01:26:21;;;;;;;10.75;7.03;;;1.10;99.90;;;;;;5075401;28;20036;-74
2024/01/16 01:28:46;;;;;;;13.32;7.38;;;1.10;99.90;;;;;;5074538;28;20035;-74
2024/01/16 01:31:12;;;;;;;9.88;5.40;;;1.10;99.90;;;;;;5074151;28;20490;-74
2024/01/16 01:33:39;;;;;;;6.85;3.60;;;1.00;99.90;;;;;;5075187;28;20031;-74
2024/01/16 01:36:05;;;;;;;5.35;2.63;;;1.00;99.90;;;;;;5073088;28;20039;-74
2024/01/16 01:38:31;;;;;;;11.88;5.85;;;0.90;99.90;;;;;;5074474;28;20032;-74
2024/01/16 01:40:57;;;;;;;8.57;5.22;;;1.10;99.90;;;;;;5075017;28;20036;-74
2024/01/16 01:43:24;;;;;;;10.50;5.03;;;1.20;99.90;;;;;;5072769;28;20440;-74
2024/01/16 01:46:21;;;;;;;7.95;4.30;;;1.30;99.90;;;;;;5073870;28;20035;-74
2024/01/16 01:48:48;;;;;;;11.15;5.80;;;1.20;99.90;;;;;;5075178;28;20407;-74
2024/01/16 01:51:17;;;;;;;11.93;6.38;;;1.00;99.90;;;;;;5073674;28;20047;-74
2024/01/16 01:53:44;;;;;;;12.57;5.72;;;0.90;99.90;;;;;;5074556;28;20118;-74
2024/01/16 01:56:18;;;;;;;9.15;5.28;;;0.80;99.90;;;;;;5075058;28;20375;-74
2024/01/16 01:58:46;;;;;;;11.70;6.78;;;0.50;99.90;;;;;;5073592;28;20043;-73
2024/01/16 02:01:14;;;;;;;11.07;6.00;;;0.10;99.90;;;;;;5074783;28;20028;-75
2024/01/16 02:03:44;;;;;;;9.70;5.18;;;0.20;99.90;;;;;;5075648;28;20750;-74
2024/01/16 02:06:11;;;;;;;8.63;4.45;;;0.50;99.90;;;;;;5057730;28;20430;-74
2024/01/16 02:08:37;;;;;;;12.27;5.82;;;0.20;99.90;;;;;;5073306;28;20081;-74
2024/01/16 02:11:03;;;;;;;7.88;4.45;;;0.20;99.90;;;;;;5074091;28;20070;-74
2024/01/16 02:13:29;;;;;;;9.15;4.47;;;0.30;99.90;;;;;;5070870;28;20035;-74
2024/01/16 02:15:55;;;;;;;9.80;5.40;;;0.40;99.90;;;;;;5073166;28;20032;-74
2024/01/16 02:18:21;;;;;;;9.48;4.85;;;0.50;99.90;;;;;;5073346;28;20056;-74
2024/01/16 02:20:47;;;;;;;8.40;5.57;;;0.50;99.90;;;;;;5073696;28;20057;-74
2024/01/16 02:23:14;;;;;;;10.05;5.32;;;0.50;99.90;;;;;;5072591;28;21486;-74
2024/01/16 02:25:43;;;;;;;10.45;5.95;;;0.70;99.90;;;;;;5073671;28;20035;-74
2024/01/16 02:28:09;;;;;;;9.32;4.30;;;0.90;99.90;;;;;;5074475;28;20036;-74
2024/01/16 02:30:35;;;;;;;4.78;3.10;;;0.80;99.90;;;;;;5072666;28;20393;-74
2024/01/16 02:33:01;;;;;;;6.50;2.55;;;0.70;99.90;;;;;;5073043;28;20024;-74
2024/01/16 02:35:26;;;;;;;5.30;3.05;;;0.60;99.90;;;;;;5073352;28;20047;-74
2024/01/16 02:37:52;;;;;;;8.77;4.30;;;0.50;99.90;;;;;;5073208;28;20027;-74
2024/01/16 02:40:18;;;;;;;8.85;3.97;;;0.60;99.90;;;;;;5073256;28;20050;-74
2024/01/16 02:42:43;;;;;;;8.00;3.92;;;0.70;99.90;;;;;;5073808;28;20040;-74
2024/01/16 02:45:09;;;;;;;7.72;3.90;;;0.70;99.90;;;;;;5072452;28;20708;-74
2024/01/16 02:47:35;;;;;;;6.50;3.00;;;0.60;99.90;;;;;;5073950;28;20044;-74
2024/01/16 02:50:02;;;;;;;4.53;2.50;;;0.70;99.20;;;;;;5072965;28;20035;-74
2024/01/16 02:52:28;;;;;;;3.85;2.33;;;0.90;98.70;;;;;;5071907;28;20043;-74
2024/01/16 02:54:53;;;;;;;5.85;2.80;;;1.00;98.50;;;;;;5074879;28;20054;-74
2024/01/16 02:57:19;;;;;;;5.82;3.33;;;0.80;99.40;;;;;;5072349;28;20386;-74
2024/01/16 02:59:46;;;;;;;7.47;2.92;;;0.80;99.60;;;;;;5072515;28;20024;-74
2024/01/16 03:02:13;;;;;;;8.02;4.82;;;1.00;98.50;;;;;;5074214;28;20032;-74
2024/01/16 03:04:39;;;;;;;8.10;5.57;;;1.30;99.10;;;;;;5073173;28;20061;-74
2024/01/16 03:07:05;;;;;;;16.60;7.93;;;1.40;99.20;;;;;;5071477;28;20078;-74
2024/01/16 03:09:31;;;;;;;15.25;8.23;;;1.40;99.90;;;;;;5074925;28;20405;-73
2024/01/16 03:11:57;;;;;;;12.10;8.65;;;1.40;99.90;;;;;;5071789;28;20032;-74
2024/01/16 03:14:23;;;;;;;14.18;8.85;;;1.40;99.90;;;;;;5071964;28;20028;-74
2024/01/16 03:16:49;;;;;;;13.13;8.00;;;1.30;99.90;;;;;;5073826;28;20040;-74
2024/01/16 03:19:14;;;;;;;13.93;8.10;;;1.40;99.90;;;;;;5072242;28;20034;-73
2024/01/16 03:21:41;;;;;;;13.10;8.23;;;1.40;99.90;;;;;;5072434;28;20055;-74
2024/01/16 03:24:07;;;;;;;14.30;8.00;;;1.30;99.90;;;;;;5075005;28;20039;-74
2024/01/16 03:26:32;;;;;;;16.63;9.00;;;1.30;99.90;;;;;;5071856;28;20036;-74
2024/01/16 03:28:58;;;;;;;15.65;8.75;;;1.30;99.90;;;;;;5071457;28;20406;-74
2024/01/16 03:31:24;;;;;;;15.32;8.35;;;1.30;99.90;;;;;;5073716;28;20394;-73
2024/01/16 03:33:50;;;;;;;13.65;8.02;;;1.20;99.90;;;;;;5072247;28;20044;-74
2024/01/16 03:36:16;;;;;;;14.75;7.40;;;1.20;99.90;;;;;;5070264;28;20036;-74
2024/01/16 03:38:43;;;;;;;13.05;7.88;;;1.20;99.90;;;;;;5072429;28;20405;-74
2024/01/16 03:41:10;;;;;;;13.77;7.97;;;1.30;99.90;;;;;;5053052;28;20046;-74
2024/01/16 03:43:36;;;;;;;15.82;8.30;;;1.30;99.90;;;;;;5072099;28;20041;-74
2024/01/16 03:46:02;;;;;;;13.18;6.97;;;1.20;99.90;;;;;;5072696;28;20074;-74
2024/01/16 03:48:28;;;;;;;12.90;8.07;;;1.00;99.90;;;;;;5074277;28;20417;-73
2024/01/16 03:50:54;;;;;;;14.50;7.72;;;1.00;99.90;;;;;;5072066;28;20028;-74
2024/01/16 03:53:21;;;;;;;13.13;6.88;;;1.00;99.90;;;;;;5073096;28;21259;-74
2024/01/16 03:55:47;;;;;;;12.65;7.65;;;1.10;99.90;;;;;;5073608;28;20405;-74
2024/01/16 03:58:13;;;;;;;11.60;6.13;;;1.20;99.90;;;;;;5072209;28;20032;-74
2024/01/16 04:00:38;;;;;;;12.52;6.20;;;1.20;99.90;;;;;;5073375;28;20031;-74
2024/01/16 04:03:04;;;;;;;11.20;6.22;;;1.10;99.90;;;;;;5069024;28;20745;-73
2024/01/16 04:05:30;;;;;;;12.68;6.88;;;1.20;99.90;;;;;;5065339;28;20033;-74
2024/01/16 04:07:57;;;;;;;10.82;5.65;;;1.10;99.90;;;;;;5066467;28;20044;-74
2024/01/16 04:10:22;;;;;;;9.45;5.38;;;1.30;99.90;;;;;;5070498;28;20822;-74
2024/01/16 04:12:48;;;;;;;9.10;4.90;;;1.40;99.50;;;;;;5070876;28;20036;-73
2024/01/16 04:15:14;;;;;;;12.25;6.05;;;1.60;99.00;;;;;;5070922;28;20036;-73
2024/01/16 04:17:39;;;;;;;11.23;6.35;;;1.30;99.80;;;;;;5069682;28;21442;-74
2024/01/16 04:20:06;;;;;;;9.57;5.43;;;1.20;99.90;;;;;;5069233;28;20115;-74
2024/01/16 04:22:33;;;;;;;8.82;5.97;;;1.10;99.90;;;;;;5068882;28;20028;-74
2024/01/16 04:24:58;;;;;;;11.85;6.10;;;1.00;99.90;;;;;;5071195;28;20039;-74
2024/01/16 04:27:25;;;;;;;12.35;6.20;;;1.00;99.90;;;;;;5071930;28;20240;-73
2024/01/16 04:29:51;;;;;;;7.50;4.53;;;0.90;99.90;;;;;;5072060;28;20534;-74
2024/01/16 04:32:16;;;;;;;11.45;5.10;;;0.80;99.90;;;;;;5072716;28;20039;-74
2024/01/16 04:34:42;;;;;;;9.13;5.50;;;0.80;99.90;;;;;;5071632;28;20088;-74
2024/01/16 04:37:08;;;;;;;10.07;5.68;;;0.80;99.90;;;;;;5065818;28;20036;-73
2024/01/16 04:39:34;;;;;;;10.57;5.45;;;0.80;99.90;;;;;;5068509;28;20032;-73
2024/01/16 04:41:59;;;;;;;10.15;5.95;;;0.80;99.90;;;;;;5071079;28;20398;-74
2024/01/16 04:44:25;;;;;;;12.55;6.10;;;0.80;99.90;;;;;;5071744;28;20070;-76
2024/01/16 04:46:51;;;;;;;10.80;5.95;;;0.80;99.90;;;;;;5072409;28;20048;-73
2024/01/16 04:49:16;;;;;;;8.63;5.38;;;0.70;99.90;;;;;;5071007;28;20542;-73
2024/01/16 04:51:42;;;;;;;9.35;5.30;;;0.70;99.90;;;;;;5072103;28;20036;-73
2024/01/16 04:54:08;;;;;;;9.20;5.47;;;0.80;99.90;;;;;;5071889;28;20525;-76
2024/01/16 04:56:33;;;;;;;11.20;5.43;;;0.80;99.90;;;;;;5071276;28;20577;-73
2024/01/16 04:58:59;;;;;;;10.65;5.88;;;1.00;99.90;;;;;;5068589;28;20062;-73
2024/01/16 05:01:25;;;;;;;9.60;5.55;;;1.10;99.90;;;;;;5069425;28;20475;-73
2024/01/16 05:03:50;;;;;;;10.52;5.70;;;1.10;99.90;;;;;;5068102;28;20032;-74
2024/01/16 05:06:16;;;;;;;9.77;5.35;;;1.10;99.90;;;;;;5067696;28;20040;-74
2024/01/16 05:08:43;;;;;;;12.52;6.20;;;1.10;99.90;;;;;;5069341;28;20087;-74
2024/01/16 05:11:09;;;;;;;12.80;7.70;;;0.90;99.90;;;;;;5068473;28;20483;-73
2024/01/16 05:13:35;;;;;;;12.38;6.90;;;0.60;99.90;;;;;;5068400;28;20151;-73
2024/01/16 05:16:00;;;;;;;13.27;6.88;;;0.30;99.90;;;;;;5069247;28;20032;-73
2024/01/16 05:18:26;;;;;;;10.80;6.43;;;0.20;99.90;;;;;;5068241;28;20028;-76
2024/01/16 05:20:52;;;;;;;9.60;5.65;;;0.20;99.90;;;;;;5066104;28;20744;-73
2024/01/16 05:23:18;;;;;;;9.57;5.20;;;0.20;99.90;;;;;;5068913;28;20132;-76
2024/01/16 05:25:44;;;;;;;11.68;5.72;;;0.40;99.90;;;;;;5068108;28;20028;-74
2024/01/16 05:28:10;;;;;;;9.98;5.03;;;0.60;99.90;;;;;;5066214;28;20355;-73
2024/01/16 05:30:35;;;;;;;10.13;4.65;;;0.80;99.90;;;;;;5068905;28;20027;-74
2024/01/16 05:33:01;;;;;;;8.45;5.30;;;0.90;99.70;;;;;;5068561;28;20075;-76
2024/01/16 05:35:28;;;;;;;12.77;6.20;;;0.90;99.60;;;;;;5066211;28;20029;-73
2024/01/16 05:37:55;;;;;;;9.30;5.57;;;0.70;99.90;;;;;;5068397;28;20123;-74
2024/01/16 05:40:21;;;;;;;11.07;5.50;;;0.60;99.90;;;;;;5066224;28;20537;-74
2024/01/16 05:42:48;;;;;;;10.65;6.30;;;0.70;99.90;;;;;;5067556;28;20035;-73
2024/01/16 05:45:14;;;;;;;10.65;5.22;;;0.70;99.90;;;;;;5068010;28;20526;-74
2024/01/16 05:47:39;;;;;;;8.88;5.13;;;0.80;99.90;;;;;;5066449;28;20072;-73
2024/01/16 05:50:06;;;;;;;8.82;5.15;;;0.70;99.90;;;;;;5067576;28;20043;-74
2024/01/16 05:52:31;;;;;;;14.55;6.03;;;0.60;99.90;;;;;;5066765;28;20047;-76
2024/01/16 05:54:59;;;;;;;9.25;5.15;;;0.60;99.90;;;;;;5067265;28;20056;-73
2024/01/16 05:57:25;;;;;;;11.13;4.75;;;0.50;99.90;;;;;;5067266;28;20238;-74
2024/01/16 05:59:51;;;;;;;8.15;4.30;;;0.50;99.90;;;;;;5067275;28;20032;-74
2024/01/16 06:02:17;;;;;;;8.40;3.95;;;0.70;98.70;;;;;;5066394;28;20032;-74
2024/01/16 06:04:42;;;;;;;7.85;4.07;;;0.60;99.00;;;;;;5067560;28;20028;-74
2024/01/16 06:07:08;;;;;;;9.65;4.68;;;0.40;99.50;;;;;;5065097;28;20066;-73
2024/01/16 06:09:40;;;;;;;9.60;4.88;;;0.60;99.90;;;;;;5067226;28;20051;-75
2024/01/16 06:12:09;;;;;;;7.15;4.00;;;0.60;99.90;;;;;;5068252;28;20064;-74
2024/01/16 06:14:35;;;;;;;6.43;3.53;;;0.90;98.30;;;;;;5068412;28;20146;-74
2024/01/16 06:17:03;;;;;;;7.22;4.05;;;0.70;98.20;;;;;;5065369;28;20508;-76
2024/01/16 06:19:28;;;;;;;8.15;4.35;;;1.00;97.60;;;;;;5066697;28;20032;-73
2024/01/16 06:21:54;;;;;;;7.03;3.97;;;1.00;97.30;;;;;;5066344;28;20036;-73
2024/01/16 06:24:19;;;;;;;6.60;3.38;;;1.00;97.00;;;;;;5071445;28;20702;-74
2024/01/16 06:26:45;;;;;;;8.02;3.35;;;0.80;97.30;;;;;;5069459;28;20051;-73
2024/01/16 06:29:11;;;;;;;6.32;3.08;;;0.70;97.80;;;;;;5069475;28;20040;-74
2024/01/16 06:31:38;;;;;;;5.95;3.25;;;0.60;98.80;;;;;;5069100;28;20430;-74
2024/01/16 06:34:03;;;;;;;8.65;4.07;;;0.50;98.00;;;;;;5067560;28;20036;-74
2024/01/16 06:36:29;;;;;;;7.50;3.83;;;0.60;97.80;;;;;;5068813;28;20065;-74
2024/01/16 06:38:55;;;;;;;9.23;5.00;;;0.60;97.50;;;;;;5064672;28;20085;-74
2024/01/16 06:41:21;;;;;;;11.35;4.75;;;0.50;97.60;;;;;;5068523;28;20027;-74
2024/01/16 06:43:46;;;;;;;10.57;3.72;;;0.50;97.50;;;;;;5068422;28;20127;-74
2024/01/16 06:46:12;;;;;;;6.15;3.25;;;0.70;97.20;;;;;;5060292;28;20042;-74
2024/01/16 06:48:38;;;;;;;7.80;3.40;;;0.80;96.50;;;;;;5067501;28;20032;-75
2024/01/16 06:51:04;;;;;;;8.25;3.85;;;1.00;96.20;;;;;;5074011;28;20081;-76
2024/01/16 06:53:30;;;;;;;9.07;3.97;;;1.00;96.20;;;;;;5067903;28;20044;-75
2024/01/16 06:55:56;;;;;;;10.90;3.80;;;0.90;96.70;;;;;;5064636;28;20935;-76
2024/01/16 06:58:21;;;;;;;6.38;3.45;;;0.90;97.70;;;;;;5067328;28;20035;-76
2024/01/16 07:00:47;;;;;;;7.30;3.70;;;0.80;96.90;;;;;;5065403;28;20575;-76
2024/01/16 07:03:13;;;;;;;8.73;4.13;;;0.90;96.80;;;;;;5065160;28;20553;-76
2024/01/16 07:05:43;;;;;;;9.23;4.63;;;0.90;97.40;;;;;;5067824;28;20036;-75
2024/01/16 07:08:09;;;;;;;9.00;4.50;;;0.80;98.10;;;;;;5066246;28;20040;-78
2024/01/16 07:10:35;;;;;;;9.05;4.63;;;0.80;96.80;;;;;;5065728;28;20343;-76
2024/01/16 07:13:02;;;;;;;7.60;3.63;;;0.80;96.90;;;;;;5067200;28;20093;-76
2024/01/16 07:15:28;;;;;;;7.75;4.05;;;0.90;97.00;;;;;;5066452;28;20401;-75
2024/01/16 07:17:53;;;;;;;7.55;4.18;;;0.90;96.80;;;;;;5065889;28;20036;-75
2024/01/16 07:20:19;;;;;;;10.23;4.85;;;0.80;96.90;;;;;;5064712;28;20059;-76
2024/01/16 07:22:45;;;;;;;8.65;5.35;;;0.70;97.50;;;;;;5067323;28;20054;-76
2024/01/16 07:25:11;;;;;;;12.07;5.60;;;0.60;97.40;;;;;;5064943;28;20051;-75
2024/01/16 07:27:37;;;;;;;10.32;5.57;;;0.60;97.40;;;;;;5065323;28;20075;-76
2024/01/16 07:30:06;;;;;;;12.85;5.60;;;0.70;97.50;;;;;;5068102;28;20032;-75
2024/01/16 07:32:32;;;;;;;12.63;5.80;;;0.70;97.60;;;;;;5065896;28;20028;-75
2024/01/16 07:34:58;;;;;;;9.80;4.93;;;0.70;97.70;;;;;;5066031;28;20032;-75
2024/01/16 07:37:24;;;;;;;13.38;5.18;;;0.70;97.70;;;;;;5066420;28;20036;-75
2024/01/16 07:39:50;;;;;;;8.82;4.28;;;0.70;97.70;;;;;;5065927;28;20028;-75
2024/01/16 07:42:16;;;;;;;8.30;4.32;;;0.70;98.00;;;;;;5064988;28;20020;-75
2024/01/16 07:44:41;;;;;;;11.45;5.57;;;0.70;98.30;;;;;;5063405;28;20035;-76
2024/01/16 07:47:07;;;;;;;9.30;4.88;;;0.70;98.30;;;;;;5067362;28;20039;-77
2024/01/16 07:49:34;;;;;;;9.40;5.20;;;0.80;98.00;;;;;;5067262;28;20032;-77
2024/01/16 07:51:59;;;;;;;9.85;4.90;;;0.80;97.60;;;;;;5072207;28;20389;-77
2024/01/16 07:54:25;;;;;;;9.80;5.30;;;0.90;97.70;;;;;;5070366;28;20066;-77
2024/01/16 07:56:51;;;;;;;9.10;5.22;;;0.80;97.80;;;;;;5069940;28;20031;-77
2024/01/16 07:59:17;;;;;;;10.85;5.82;;;0.80;98.30;;;;;;5072145;28;20024;-77
2024/01/16 08:01:43;;;;;;;9.15;5.60;;;0.90;98.60;;;;;;5070713;28;20396;-78
2024/01/16 08:04:09;;;;;;;9.70;5.85;;;1.00;98.30;;;;;;5071938;28;20114;-78
2024/01/16 08:06:35;;;;;;;10.45;5.88;;;1.00;98.40;;;;;;5074326;28;20044;-76
2024/01/16 08:09:00;;;;;;;10.10;4.97;;;1.00;98.40;;;;;;5072326;28;20048;-77
2024/01/16 08:11:26;;;;;;;9.77;6.10;;;1.10;98.60;;;;;;5071955;28;20028;-76
2024/01/16 08:13:52;;;;;;;12.80;6.47;;;1.00;98.80;;;;;;5073607;28;20036;-74
2024/01/16 08:16:17;;;;;;;10.55;6.85;;;1.00;99.00;;;;;;5072571;28;20024;-76
2024/01/16 08:18:43;;;;;;;14.93;6.80;;;1.00;99.10;;;;;;5073575;28;20501;-75
2024/01/16 08:21:08;;;;;;;30.08;16.40;;;1.00;99.30;;;;;;5072105;28;20169;-76
2024/01/16 08:23:34;;;;;;;33.17;15.88;;;0.80;99.60;;;;;;5071828;28;20086;-77
2024/01/16 08:26:00;;;;;;;21.17;12.48;;;0.60;99.90;;;;;;5072984;28;20038;-78
2024/01/16 08:28:26;;;;;;;14.18;7.53;;;0.40;99.90;;;;;;5073104;28;20039;-75
2024/01/16 08:30:52;;;;;;;12.13;6.68;;;0.20;99.90;;;;;;5071225;28;20028;-74
2024/01/16 08:33:18;;;;;;;10.35;6.15;;;0.30;99.90;;;;;;5072485;28;20406;-76
2024/01/16 08:35:44;;;;;;;11.15;6.00;;;0.50;99.90;;;;;;5072124;28;20040;-72
2024/01/16 08:38:09;;;;;;;11.13;5.65;;;0.60;99.90;;;;;;5071706;28;20040;-73
2024/01/16 08:40:35;;;;;;;9.95;4.78;;;1.10;99.90;;;;;;5069836;28;20575;-75
2024/01/16 08:43:01;;;;;;;9.73;4.93;;;1.10;98.50;;;;;;5070317;28;20414;-73
2024/01/16 08:45:27;;;;;;;9.85;4.40;;;1.20;98.10;;;;;;5072061;28;20048;-73
2024/01/16 08:47:52;;;;;;;7.30;4.18;;;1.20;97.80;;;;;;5073287;28;20052;-73
2024/01/16 08:50:18;;;;;;;10.35;4.40;;;1.10;97.60;;;;;;5071284;28;20066;-74
2024/01/16 08:52:44;;;;;;;14.13;5.85;;;1.10;97.30;;;;;;5071096;28;20550;-74
2024/01/16 08:55:10;;;;;;;10.00;5.80;;;1.30;99.20;;;;;;5071402;28;20040;-76
2024/01/16 08:57:37;;;;;;;9.07;5.38;;;1.10;98.70;;;;;;5070343;28;20024;-76
2024/01/16 09:00:04;;;;;;;9.30;5.25;;;1.00;99.80;;;;;;5072397;28;20078;-73
2024/01/16 09:02:30;;;;;;;8.57;4.70;;;0.80;99.10;;;;;;5071690;28;20055;-74
2024/01/16 09:04:58;;;;;;;10.38;5.03;;;0.80;98.50;;;;;;5069267;28;20047;-73
2024/01/16 09:07:24;;;;;;;8.65;5.15;;;0.90;98.60;;;;;;5067661;28;20044;-73
2024/01/16 09:09:50;;;;;;;12.80;4.72;;;0.90;99.00;;;;;;5070831;28;20036;-72
2024/01/16 09:12:16;;;;;;;12.00;5.45;;;0.80;98.90;;;;;;5070847;28;20098;-72
2024/01/16 09:14:41;;;;;;;8.38;4.40;;;0.80;99.00;;;;;;5071594;28;20032;-74
2024/01/16 09:17:07;;;;;;;9.63;4.90;;;0.90;99.20;;;;;;5069986;28;20444;-74
2024/01/16 09:19:33;;;;;;;9.32;4.93;;;0.90;99.20;;;;;;5069101;28;20032;-74
2024/01/16 09:21:58;;;;;;;8.38;4.43;;;0.80;99.10;;;;;;5067256;28;20643;-73
2024/01/16 09:24:24;;;;;;;9.05;4.35;;;0.90;99.30;;;;;;5069324;28;20084;-73
2024/01/16 09:26:50;;;;;;;8.93;4.72;;;0.80;99.90;;;;;;5070555;28;20184;-73
2024/01/16 09:29:16;;;;;;;8.90;4.65;;;0.70;99.70;;;;;;5070858;28;20048;-73
2024/01/16 09:31:42;;;;;;;8.63;4.10;;;0.70;99.90;;;;;;5072063;28;20031;-72
2024/01/16 09:34:08;;;;;;;7.72;4.28;;;0.80;99.40;;;;;;5070818;28;20047;-73
2024/01/16 09:36:36;;;;;;;7.63;3.78;;;0.80;98.90;;;;;;5069821;28;20040;-72
2024/01/16 09:39:07;;;;;;;8.73;4.03;;;0.80;98.50;;;;;;5071364;28;20035;-72
2024/01/16 09:41:34;;;;;;;11.10;4.05;;;0.90;98.80;;;;;;5070021;28;20038;-72
2024/01/16 09:44:00;;;;;;;8.98;3.47;;;0.90;98.80;;;;;;5070534;28;20059;-73
2024/01/16 09:46:26;;;;;;;7.72;3.65;;;0.90;98.60;;;;;;5072457;28;20462;-73
2024/01/16 09:48:55;;;;;;;6.00;3.30;;;1.10;98.20;;;;;;5070596;28;20082;-75
2024/01/16 09:51:21;;;;;;;8.18;3.97;;;1.10;98.90;;;;;;5069112;28;20643;-74
2024/01/16 09:53:46;;;;;;;8.23;3.95;;;0.90;98.90;;;;;;5071032;28;20043;-72
2024/01/16 09:56:16;;;;;;;11.57;4.10;;;0.90;99.20;;;;;;5070687;28;20028;-73
2024/01/16 09:58:43;;;;;;;6.03;3.42;;;0.80;99.30;;;;;;5070247;28;20024;-74
2024/01/16 10:01:11;;;;;;;8.10;4.18;;;0.80;99.00;;;;;;5070976;28;20036;-74
2024/01/16 10:03:38;;;;;;;6.35;3.22;;;1.00;98.70;;;;;;5071929;28;20036;-75
2024/01/16 10:06:07;;;;;;;8.55;3.72;;;1.10;98.50;;;;;;5069516;28;20067;-75
2024/01/16 10:08:33;;;;;;;7.45;4.10;;;1.10;99.20;;;;;;5069315;28;20086;-73
2024/01/16 10:10:59;;;;;;;8.00;5.07;;;1.00;98.90;;;;;;5053307;28;20036;-75
2024/01/16 10:13:26;;;;;;;11.95;4.90;;;1.10;98.80;;;;;;5067429;28;20028;-74
2024/01/16 10:15:55;;;;;;;7.80;4.43;;;1.10;99.50;;;;;;5067201;28;20039;-74
2024/01/16 10:18:24;;;;;;;6.68;3.63;;;1.00;99.50;;;;;;5069122;28;20031;-74
2024/01/16 10:20:50;;;;;;;8.80;3.72;;;1.00;98.90;;;;;;5069355;28;20046;-74
2024/01/16 10:23:34;;;;;;;7.97;4.43;;;1.10;99.10;;;;;;5066746;28;20396;-75
2024/01/16 10:26:09;;;;;;;8.80;4.40;;;1.00;99.20;;;;;;5070532;28;20131;-73
2024/01/16 10:28:39;;;;;;;9.68;4.57;;;1.20;98.60;;;;;;5070084;28;20035;-73
2024/01/16 10:31:09;;;;;;;6.88;4.00;;;1.30;98.30;;;;;;5069821;28;20081;-73
2024/01/16 10:33:38;;;;;;;7.85;3.67;;;1.40;98.10;;;;;;5070454;28;20040;-74
2024/01/16 10:36:19;;;;;;;8.25;4.05;;;1.40;98.60;;;;;;5070202;28;20074;-73
2024/01/16 10:38:46;;;;;;;5.28;2.95;;;1.30;98.80;;;;;;5068031;28;20028;-73
2024/01/16 10:41:13;;;;;;;7.22;3.15;;;1.20;99.30;;;;;;5071774;28;20043;-73
2024/01/16 10:43:39;;;;;;;6.13;3.28;;;1.20;98.00;;;;;;5074315;28;20641;-74
2024/01/16 10:46:18;;;;;;;7.05;3.75;;;1.40;97.80;;;;;;5074130;28;20032;-74
2024/01/16 10:48:57;;;;;;;10.48;4.82;;;1.60;97.80;;;;;;5074830;28;20085;-73
2024/01/16 10:51:26;;;;;;;8.82;4.65;;;1.80;98.00;;;;;;5069208;28;20036;-74
2024/01/16 10:53:57;;;;;;;7.75;4.18;;;1.90;98.00;;;;;;5072910;28;20056;-75
2024/01/16 10:56:24;;;;;;;10.75;4.65;;;2.00;97.80;;;;;;5069455;28;20032;-74
2024/01/16 10:59:15;;;;;;;10.52;4.95;;;2.10;97.90;;;;;;5070857;28;20038;-74
2024/01/16 11:01:45;;;;;;;9.32;4.80;;;2.10;97.80;;;;;;5069076;28;20402;-74
2024/01/16 11:04:12;;;;;;;9.80;4.82;;;2.30;97.60;;;;;;5069221;28;20040;-74
2024/01/16 11:06:39;;;;;;;19.15;10.20;;;2.40;97.20;;;;;;5069307;28;20452;-74
2024/01/16 11:09:06;;;;;;;12.25;6.93;;;2.50;96.80;;;;;;5069803;28;20068;-75
2024/01/16 11:11:34;;;;;;;13.07;6.80;;;2.70;96.80;;;;;;5070456;28;20032;-74
2024/01/16 11:14:05;;;;;;;10.93;5.63;;;2.70;96.80;;;;;;5036906;28;20535;-74
2024/01/16 11:16:32;;;;;;;10.73;4.68;;;2.70;97.00;;;;;;5068581;28;20082;-74
2024/01/16 11:18:58;;;;;;;11.77;5.50;;;2.80;96.90;;;;;;5069558;28;20036;-74
2024/01/16 11:21:25;;;;;;;9.27;5.35;;;2.80;97.00;;;;;;5067759;28;20039;-74
2024/01/16 11:23:51;;;;;;;8.27;5.32;;;2.80;97.00;;;;;;5069006;28;20043;-74
2024/01/16 11:26:39;;;;;;;10.00;5.20;;;3.00;97.30;;;;;;5069161;28;20040;-74
2024/01/16 11:29:27;;;;;;;11.07;5.78;;;3.10;97.20;;;;;;5069852;28;20031;-74
2024/01/16 11:31:53;;;;;;;11.07;5.80;;;3.20;96.90;;;;;;5069893;28;20504;-73
2024/01/16 11:34:54;;;;;;;12.60;5.82;;;3.30;97.00;;;;;;5069035;28;20040;-73
2024/01/16 11:37:28;;;;;;;9.73;5.32;;;3.50;96.90;;;;;;5067176;28;20040;-74
2024/01/16 11:40:26;;;;;;;9.82;4.68;;;3.70;96.60;;;;;;5067973;28;20032;-73
2024/01/16 11:42:53;;;;;;;8.88;4.57;;;3.80;96.10;;;;;;5070385;28;20094;-74
2024/01/16 11:45:28;;;;;;;7.72;4.57;;;3.90;96.20;;;;;;5069445;28;21823;-73
2024/01/16 11:48:09;;;;;;;7.63;4.28;;;3.90;95.90;;;;;;5068674;28;20044;-74
2024/01/16 11:50:35;;;;;;;8.48;4.68;;;4.00;95.80;;;;;;5066096;28;20036;-74
2024/01/16 11:53:01;;;;;;;11.10;4.15;;;4.00;95.70;;;;;;5064638;28;20030;-73
2024/01/16 11:55:30;;;;;;;8.20;4.40;;;4.10;95.70;;;;;;5066315;28;21323;-74
2024/01/16 11:58:17;;;;;;;7.68;4.45;;;4.20;96.00;;;;;;5065692;28;20044;-74
2024/01/16 12:00:45;;;;;;;11.70;5.00;;;4.30;95.60;;;;;;5065450;28;20596;-74
2024/01/16 12:03:14;;;;;;;8.93;4.18;;;4.20;94.30;;;;;;5066883;28;20066;-73
2024/01/16 12:05:39;;;;;;;6.40;3.42;;;4.30;94.60;;;;;;5069671;28;20048;-75
2024/01/16 12:08:06;;;;;;;6.80;3.90;;;4.60;94.40;;;;;;5068592;28;20121;-74
2024/01/16 12:10:32;;;;;;;9.32;3.70;;;4.70;94.10;;;;;;5069265;28;20035;-74
2024/01/16 12:12:59;;;;;;;6.68;3.38;;;4.90;93.60;;;;;;5069052;28;20547;-73
2024/01/16 12:15:24;;;;;;;7.28;3.30;;;4.80;93.60;;;;;;5068615;28;20024;-73
2024/01/16 12:18:00;;;;;;;5.25;2.92;;;4.80;93.00;;;;;;5068187;28;20039;-73
2024/01/16 12:20:29;;;;;;;5.43;3.30;;;5.00;93.70;;;;;;5068065;28;20043;-74
2024/01/16 12:23:00;;;;;;;14.10;7.63;;;5.00;93.90;;;;;;5068621;28;20039;-73
2024/01/16 12:25:33;;;;;;;9.30;5.50;;;5.10;92.70;;;;;;5067859;28;20020;-73
2024/01/16 12:28:00;;;;;;;7.70;4.03;;;5.10;93.60;;;;;;5067584;28;20097;-74
2024/01/16 12:30:28;;;;;;;6.53;3.45;;;5.10;92.60;;;;;;5068355;28;20040;-73
2024/01/16 12:33:14;;;;;;;6.03;3.20;;;5.30;92.70;;;;;;5072003;28;20028;-73
2024/01/16 12:35:46;;;;;;;7.68;3.38;;;5.30;92.80;;;;;;5072015;28;20418;-73
2024/01/16 12:38:13;;;;;;;9.63;3.45;;;5.30;92.90;;;;;;5071855;28;21363;-72
2024/01/16 12:40:41;;;;;;;7.93;3.13;;;5.30;92.80;;;;;;5072009;28;20110;-73
2024/01/16 12:43:09;;;;;;;7.28;3.15;;;5.20;92.60;;;;;;5072332;28;20039;-73
2024/01/16 12:45:35;;;;;;;7.05;3.38;;;5.30;93.20;;;;;;5070945;28;20029;-73
2024/01/16 12:48:03;;;;;;;10.88;2.92;;;5.50;93.20;;;;;;5068879;28;20088;-73
2024/01/16 12:50:30;;;;;;;5.13;3.03;;;5.40;92.50;;;;;;5072095;28;20031;-73
2024/01/16 12:53:05;;;;;;;8.07;2.33;;;5.50;92.50;;;;;;5071126;28;20035;-73